Capitol Logistics 3254




KMTH
The Florida Keys Marathon International Airport
Marathon, Florida
KEYW
Key West International Airport
Key West, Florida

Activity Log

Date Flight Route Aircraft Duration
03/09/2021 CPX3254 KMTH/07 STRAP KEYW/STRAP.R09 SF34 0h 31m
07/05/2020 CPX3254 JANKA SF34 0h 33m
10/23/2019 CPX654 JANKA SF34 0h 31m
06/16/2019 CPX654 JANKA SF34 0h 25m
06/05/2019 CPX654 DVALL CURSO5 SF34 0h 38m
04/30/2019 CPX654 NQX SF34 0h 17m
04/13/2019 CPX654 JANKA SF34 0h 18m
04/02/2019 CPX654 JANKA SF34 0h 21m
03/21/2019 CPX654 JANKA SF34 0h 25m
03/06/2019 CPX654 JANKA SF34 0h 25m

Route Details

Aircraft Information
Primary: Saab 340AF
Backup: Not Available
Route Data
Distance: 40nm
Duration: 0h 45m
Recm'd Route: JANKA
Origin Wx: KMTH 180253Z AUTO 14003KT 10SM CLR 26/22 A2992 RMK AO2 SLP132 T02560217 53014
Dest. Wx: KEYW 180253Z AUTO 16004KT 10SM CLR 27/22 A2994 RMK AO2 SLP137 T02670217 53017
Notes: